Time;durP1;ratioP1;P1;durP2;ratioP2;P2;SDS_P1;SDS_P2;PMS_P1;PMS_P2;Temp;Humidity;BMP_temperature;BMP_pressure;BME280_temperature;BME280_humidity;BME280_pressure;Samples;Min_cycle;Max_cycle;Signal;HPM_P1;HPM_P2
2022/10/20 00:01:37;;;;;;;12.93;8.07;;;;;;;5.85;76.10;101305.78;30732762;28;107089;-64
2022/10/20 00:16:38;;;;;;;14.55;8.30;;;;;;;5.45;77.05;101304.22;30732356;28;96698;-65
2022/10/20 00:31:39;;;;;;;32.27;10.87;;;;;;;5.10;77.53;101297.00;30731766;28;96845;-68
2022/10/20 00:46:41;;;;;;;14.85;9.02;;;;;;;4.84;77.83;101293.50;30729882;28;110119;-66
2022/10/20 01:01:42;;;;;;;13.05;7.88;;;;;;;4.57;78.47;101281.28;30739612;28;96665;-70
2022/10/20 01:16:50;;;;;;;30.42;14.35;;;;;;;4.33;78.87;101273.22;30749517;28;96598;-70
2022/10/20 01:32:00;;;;;;;63.20;29.17;;;;;;;4.15;78.89;101270.00;30747777;28;96721;-67
2022/10/20 01:47:02;;;;;;;40.08;20.70;;;;;;;3.97;79.44;101267.63;30746568;28;96759;-67
2022/10/20 02:02:16;;;;;;;25.70;14.38;;;;;;;3.64;79.32;101266.25;30745324;28;97752;-65
2022/10/20 02:17:19;;;;;;;21.83;11.43;;;;;;;3.35;79.89;101257.59;30743500;28;97075;-66
2022/10/20 02:32:21;;;;;;;18.42;8.95;;;;;;;3.13;80.05;101271.25;30742192;28;96741;-65
2022/10/20 02:47:21;;;;;;;17.45;9.82;;;;;;;2.90;80.29;101270.88;30740665;28;96695;-67
2022/10/20 03:02:22;;;;;;;15.68;7.93;;;;;;;2.65;80.67;101267.13;30740110;28;97910;-67
2022/10/20 03:17:22;;;;;;;12.38;8.95;;;;;;;2.46;80.43;101266.50;30735977;28;96887;-68
2022/10/20 03:32:23;;;;;;;20.38;9.82;;;;;;;2.41;81.36;101282.56;30735925;28;97766;-68
2022/10/20 03:47:23;;;;;;;12.50;8.68;;;;;;;2.43;80.88;101287.75;30733191;28;102151;-66
2022/10/20 04:02:35;;;;;;;15.60;8.00;;;;;;;2.25;80.66;101272.09;30731840;28;102790;-66
2022/10/20 04:17:35;;;;;;;13.80;8.30;;;;;;;2.08;80.63;101272.22;30745810;28;97190;-66
2022/10/20 04:32:36;;;;;;;16.88;9.93;;;;;;;1.80;80.82;101274.66;30732290;28;96736;-65
2022/10/20 04:47:36;;;;;;;17.23;10.27;;;;;;;1.60;81.47;101253.91;30749275;28;96812;-68
2022/10/20 05:02:36;;;;;;;17.05;8.73;;;;;;;1.47;81.10;101238.00;30739645;28;98220;-66
2022/10/20 05:17:37;;;;;;;22.02;13.10;;;;;;;1.42;81.49;101232.16;30731292;28;119664;-63
2022/10/20 05:32:37;;;;;;;18.15;8.50;;;;;;;1.34;81.65;101224.72;30741794;28;109035;-64
2022/10/20 05:47:37;;;;;;;12.23;8.32;;;;;;;1.52;82.22;101226.31;30819979;28;116073;-65
2022/10/20 06:02:38;;;;;;;16.67;9.57;;;;;;;2.23;82.50;101236.31;30739420;28;97115;-65
2022/10/20 06:17:38;;;;;;;16.88;9.50;;;;;;;3.22;82.74;101233.81;30747661;28;112494;-65
2022/10/20 06:32:38;;;;;;;13.68;8.13;;;;;;;4.44;82.17;101260.13;30801381;28;113037;-67
2022/10/20 06:47:38;;;;;;;11.00;7.28;;;;;;;5.62;81.66;101246.63;30742175;28;100586;-68
2022/10/20 07:02:39;;;;;;;14.85;7.82;;;;;;;6.95;80.33;101258.72;30753681;28;97359;-64
2022/10/20 07:17:39;;;;;;;10.20;7.32;;;;;;;8.19;78.40;101260.22;30770822;28;98128;-69
2022/10/20 07:32:40;;;;;;;14.05;9.32;;;;;;;9.15;76.53;101255.59;30729364;28;105033;-67
2022/10/20 07:47:40;;;;;;;14.10;9.23;;;;;;;10.59;74.50;101260.44;30694046;28;98185;-64
2022/10/20 08:02:40;;;;;;;11.00;8.13;;;;;;;12.29;70.24;101249.38;30693771;28;97916;-66
2022/10/20 08:17:40;;;;;;;12.00;7.47;;;;;;;13.77;68.46;101230.47;30698734;28;96813;-62
2022/10/20 08:32:41;;;;;;;11.07;6.07;;;;;;;23.45;53.50;101242.66;30688733;28;114697;-62
2022/10/20 08:47:42;;;;;;;9.40;5.60;;;;;;;29.17;37.75;101244.03;30689280;28;98126;-62
2022/10/20 09:02:44;;;;;;;12.13;6.57;;;;;;;30.56;28.49;101226.81;30687212;28;98493;-63
2022/10/20 09:17:48;;;;;;;9.30;4.00;;;;;;;32.08;21.50;101220.94;30695491;28;99019;-62
2022/10/20 09:32:49;;;;;;;6.53;3.77;;;;;;;33.47;18.94;101214.53;30708287;28;97562;-65
2022/10/20 09:47:53;;;;;;;5.00;2.80;;;;;;;34.01;17.42;101201.22;30707979;28;98480;-66
2022/10/20 10:03:20;;;;;;;4.03;2.20;;;;;;;35.11;15.47;101181.31;30706833;28;97357;-62
2022/10/20 10:18:21;;;;;;;4.13;2.07;;;;;;;33.63;15.72;101183.88;30704775;28;98480;-66
2022/10/20 10:33:26;;;;;;;4.03;2.37;;;;;;;34.12;15.61;101167.84;30700633;28;98572;-67
2022/10/20 10:48:36;;;;;;;3.90;2.13;;;;;;;37.33;13.41;101140.75;30704465;28;98175;-62
2022/10/20 11:03:58;;;;;;;6.57;2.27;;;;;;;37.79;12.38;101109.72;30700866;28;98390;-65
2022/10/20 11:19:16;;;;;;;8.87;2.20;;;;;;;37.46;12.61;101080.56;30698026;28;97299;-63
2022/10/20 11:34:44;;;;;;;7.70;2.47;;;;;;;40.52;10.80;101062.97;30698070;28;98822;-65
2022/10/20 11:49:45;;;;;;;6.13;2.70;;;;;;;40.20;10.61;101031.28;30690569;28;97968;-63
2022/10/20 12:05:17;;;;;;;6.47;2.72;;;;;;;41.23;9.91;101012.25;30695936;28;98933;-68
2022/10/20 12:20:21;;;;;;;4.90;2.83;;;;;;;40.81;10.30;100990.34;30661799;28;97112;-67
2022/10/20 12:35:21;;;;;;;5.43;2.83;;;;;;;40.16;10.38;100968.97;30691124;28;98741;-66
2022/10/20 12:50:35;;;;;;;7.22;2.47;;;;;;;40.03;10.05;100938.28;30694614;28;98879;-69
2022/10/20 13:05:41;;;;;;;8.80;2.90;;;;;;;39.15;10.40;100932.31;30720615;28;97492;-68
2022/10/20 13:20:53;;;;;;;4.03;2.70;;;;;;;38.01;10.89;100914.78;30741240;28;97367;-63
2022/10/20 13:36:02;;;;;;;7.60;3.03;;;;;;;33.84;12.75;100903.34;30743646;28;96641;-67
2022/10/20 13:51:15;;;;;;;7.13;3.23;;;;;;;32.44;13.51;100879.50;30740892;28;97382;-64
2022/10/20 14:06:45;;;;;;;7.10;2.80;;;;;;;30.53;15.28;100872.72;30740101;28;96837;-65
2022/10/20 14:21:50;;;;;;;5.60;2.93;;;;;;;30.13;16.23;100855.44;30736036;28;97728;-66
2022/10/20 14:36:53;;;;;;;5.13;2.77;;;;;;;30.00;16.51;100843.97;30735566;28;97087;-66
2022/10/20 14:52:05;;;;;;;6.43;3.30;;;;;;;26.69;18.30;100838.56;30723380;28;97074;-66
2022/10/20 15:07:25;;;;;;;6.03;3.00;;;;;;;24.19;21.10;100817.72;30737142;28;96586;-65
2022/10/20 15:22:25;;;;;;;6.90;3.33;;;;;;;20.20;24.78;100796.19;30733849;28;96793;-66
2022/10/20 15:37:25;;;;;;;6.67;3.90;;;;;;;15.56;30.41;100805.88;30735219;28;96660;-65
2022/10/20 15:52:26;;;;;;;7.70;4.10;;;;;;;12.68;35.91;100786.47;30728840;28;112975;-66
2022/10/20 16:07:26;;;;;;;9.07;4.90;;;;;;;10.99;39.32;100776.78;30643189;28;97244;-66
2022/10/20 16:22:27;;;;;;;16.35;5.70;;;;;;;9.87;42.00;100778.22;30591822;28;108181;-67
2022/10/20 16:37:29;;;;;;;10.30;5.18;;;;;;;9.19;44.02;100787.44;30708178;28;96764;-66
2022/10/20 16:52:29;;;;;;;27.67;11.63;;;;;;;8.58;46.26;100770.97;30737527;28;97491;-65
2022/10/20 17:07:30;;;;;;;13.43;6.20;;;;;;;8.08;47.44;100772.00;30736680;28;97223;-67
2022/10/20 17:22:30;;;;;;;13.35;6.78;;;;;;;7.74;48.91;100772.38;30734055;28;121082;-63
2022/10/20 17:37:30;;;;;;;9.70;5.60;;;;;;;7.48;50.06;100767.59;30730623;28;96996;-63
2022/10/20 17:52:31;;;;;;;10.18;5.43;;;;;;;7.19;51.18;100762.19;30731596;28;97065;-63
2022/10/20 18:07:31;;;;;;;7.45;5.22;;;;;;;6.93;52.91;100736.19;30740876;28;96683;-64
2022/10/20 18:22:31;;;;;;;10.27;5.50;;;;;;;6.63;53.40;100706.06;30743257;28;96768;-66
2022/10/20 18:37:32;;;;;;;12.63;6.00;;;;;;;6.33;55.22;100701.56;30740578;28;106306;-67
2022/10/20 18:52:33;;;;;;;11.70;6.18;;;;;;;6.02;55.71;100694.41;30738332;28;117234;-66
2022/10/20 19:07:33;;;;;;;14.50;7.40;;;;;;;5.78;56.73;100701.72;30737231;28;96721;-66
2022/10/20 19:22:34;;;;;;;16.02;7.30;;;;;;;5.59;57.79;100684.69;30736722;28;97030;-66
2022/10/20 19:37:34;;;;;;;16.60;8.95;;;;;;;5.46;58.71;100662.91;30735911;28;114822;-66
2022/10/20 19:52:35;;;;;;;13.05;7.47;;;;;;;5.20;59.26;100664.03;30732122;28;96696;-66
2022/10/20 20:07:35;;;;;;;15.48;7.50;;;;;;;5.02;60.22;100652.34;30731749;28;96644;-66
2022/10/20 20:22:35;;;;;;;15.48;7.57;;;;;;;4.94;61.33;100639.75;30731993;28;96887;-66
2022/10/20 20:37:36;;;;;;;19.42;8.85;;;;;;;4.92;62.02;100633.72;30731888;28;96994;-67
2022/10/20 20:52:36;;;;;;;13.77;7.82;;;;;;;4.73;62.81;100622.00;30729808;28;96585;-66
2022/10/20 21:07:37;;;;;;;16.33;8.98;;;;;;;4.67;63.83;100617.19;30728568;28;97836;-66
2022/10/20 21:22:37;;;;;;;19.70;10.13;;;;;;;4.57;64.55;100613.63;30744114;28;96663;-66
2022/10/20 21:37:37;;;;;;;18.23;10.30;;;;;;;4.56;65.05;100598.75;30748281;28;96830;-66
2022/10/20 21:52:38;;;;;;;16.90;9.55;;;;;;;4.51;65.54;100550.78;30746724;28;110003;-66
2022/10/20 22:07:38;;;;;;;17.77;9.75;;;;;;;4.55;66.72;100553.06;30746386;28;96692;-66
2022/10/20 22:22:38;;;;;;;17.15;9.40;;;;;;;4.52;67.63;100515.53;30743795;28;115876;-66
2022/10/20 22:37:39;;;;;;;16.70;9.82;;;;;;;4.39;67.78;100544.69;30741759;28;114650;-66
2022/10/20 22:52:39;;;;;;;21.52;11.32;;;;;;;4.28;68.31;100542.03;30740960;28;117637;-66
2022/10/20 23:07:39;;;;;;;22.05;10.98;;;;;;;4.05;69.41;100521.78;30738867;28;112853;-65
2022/10/20 23:22:40;;;;;;;19.13;10.48;;;;;;;3.96;69.85;100511.97;30737380;28;98424;-66
2022/10/20 23:37:40;;;;;;;20.23;11.05;;;;;;;3.84;70.36;100489.19;30737634;28;97251;-66
2022/10/20 23:52:42;;;;;;;18.17;10.52;;;;;;;3.64;70.88;100478.41;30735729;28;97120;-65
